createdAt,value
2019-05-09T00:00:03.945Z,99442.88
2019-05-09T00:02:34.259Z,99438.19
2019-05-09T00:05:03.591Z,99445.01
2019-05-09T00:07:33.730Z,99444.18
2019-05-09T00:10:04.077Z,99442.28
2019-05-09T00:12:33.538Z,99439.27
2019-05-09T00:15:04.417Z,99443.42
2019-05-09T00:17:33.770Z,99439.11
2019-05-09T00:20:04.126Z,99445.11
2019-05-09T00:22:33.262Z,99431.36
2019-05-09T00:25:03.309Z,99436.78
2019-05-09T00:27:33.227Z,99430.25
2019-05-09T00:30:03.854Z,99432.69
2019-05-09T00:32:36.201Z,99434.05
2019-05-09T00:35:10.113Z,99439.73
2019-05-09T00:37:56.299Z,99431.55
2019-05-09T00:40:24.976Z,99428.52
2019-05-09T00:42:56.383Z,99437.00
2019-05-09T00:45:38.540Z,99438.14
2019-05-09T00:48:07.049Z,99434.05
2019-05-09T00:50:35.451Z,99433.52
2019-05-09T00:53:03.882Z,99435.16
2019-05-09T00:55:33.253Z,99433.80
2019-05-09T00:58:04.047Z,99439.01
2019-05-09T01:00:33.354Z,99437.64
2019-05-09T01:03:03.562Z,99436.59
2019-05-09T01:05:34.176Z,99438.28
2019-05-09T01:08:04.316Z,99433.33
2019-05-09T01:10:34.221Z,99435.23
2019-05-09T01:13:03.566Z,99442.38
2019-05-09T01:15:33.450Z,99433.87
2019-05-09T01:18:04.171Z,99425.68
2019-05-09T01:20:33.290Z,99432.83
2019-05-09T01:23:03.470Z,99431.64
2019-05-09T01:25:33.550Z,99432.50
2019-05-09T01:28:03.371Z,99435.23
2019-05-09T01:30:33.592Z,99437.74
2019-05-09T01:33:13.577Z,99438.56
2019-05-09T01:35:43.413Z,99439.65
2019-05-09T01:38:14.002Z,99433.11
2019-05-09T01:40:43.884Z,99435.02
2019-05-09T01:43:13.875Z,99443.20
2019-05-09T01:45:43.199Z,99441.30
2019-05-09T01:48:13.997Z,99441.02
2019-05-09T01:50:43.165Z,99440.77
2019-05-09T01:53:13.538Z,99440.77
2019-05-09T01:56:00.608Z,99444.56
2019-05-09T01:58:31.003Z,99453.30
2019-05-09T02:00:59.568Z,99452.66
2019-05-09T02:03:28.165Z,99449.39
2019-05-09T02:05:57.568Z,99446.08
2019-05-09T02:08:25.975Z,99449.35
2019-05-09T02:10:54.782Z,99452.84
2019-05-09T02:13:23.291Z,99456.36
2019-05-09T02:16:11.075Z,99454.38
2019-05-09T02:18:41.120Z,99456.47
2019-05-09T02:21:11.505Z,99471.12
2019-05-09T02:23:39.758Z,99474.31
2019-05-09T02:26:08.193Z,99471.52
2019-05-09T02:28:36.603Z,99468.20
2019-05-09T02:31:05.540Z,99471.69
2019-05-09T02:33:34.910Z,99470.51
2019-05-09T02:36:03.490Z,99478.33
2019-05-09T02:38:31.890Z,99484.56
2019-05-09T02:41:00.792Z,99475.70
2019-05-09T02:43:29.387Z,99482.98
2019-05-09T02:46:04.886Z,99477.20
2019-05-09T02:48:33.359Z,99482.28
2019-05-09T02:51:01.783Z,99476.69
2019-05-09T02:53:30.187Z,99480.48
2019-05-09T02:55:58.781Z,99478.83
2019-05-09T02:58:28.859Z,99486.69
2019-05-09T03:01:01.775Z,99488.38
2019-05-09T03:03:34.518Z,99486.40
2019-05-09T03:06:03.003Z,99480.66
2019-05-09T03:08:31.405Z,99482.55
2019-05-09T03:10:59.808Z,99483.30
2019-05-09T03:13:29.236Z,99480.21
2019-05-09T03:15:59.399Z,99473.48
2019-05-09T03:18:28.639Z,99472.38
2019-05-09T03:21:04.603Z,99471.52
2019-05-09T03:23:33.085Z,99480.56
2019-05-09T03:26:01.483Z,99482.83
2019-05-09T03:28:49.257Z,99479.73
2019-05-09T03:31:19.880Z,99489.64
2019-05-09T03:33:50.039Z,99492.53
2019-05-09T03:36:18.440Z,99494.72
2019-05-09T03:38:47.558Z,99493.14
2019-05-09T03:41:17.728Z,99495.33
2019-05-09T03:43:48.302Z,99496.41
2019-05-09T03:46:30.509Z,99497.06
2019-05-09T03:49:03.252Z,99497.75
2019-05-09T03:51:31.659Z,99505.63
2019-05-09T03:54:00.081Z,99504.13
2019-05-09T03:56:32.613Z,99508.05
2019-05-09T03:59:01.041Z,99516.91
2019-05-09T04:01:29.449Z,99510.78
2019-05-09T04:04:09.971Z,99510.78
2019-05-09T04:06:39.076Z,99517.89
2019-05-09T04:09:08.893Z,99516.53
2019-05-09T04:11:38.097Z,99514.34
2019-05-09T04:14:11.429Z,99519.25
2019-05-09T04:16:39.836Z,99529.84
2019-05-09T04:19:08.420Z,99529.37
2019-05-09T04:21:51.872Z,99528.27
2019-05-09T04:24:20.679Z,99533.94
2019-05-09T04:26:50.723Z,99537.47
2019-05-09T04:29:19.148Z,99544.30
2019-05-09T04:31:48.360Z,99538.29
2019-05-09T04:34:18.315Z,99541.02
2019-05-09T04:36:48.389Z,99548.05
2019-05-09T04:39:23.315Z,99543.58
2019-05-09T04:41:48.627Z,99538.63
2019-05-09T04:44:21.629Z,99545.73
2019-05-09T04:46:49.156Z,99549.24
2019-05-09T04:49:19.127Z,99547.95
2019-05-09T04:51:48.073Z,99547.44
2019-05-09T04:54:17.742Z,99557.83
2019-05-09T04:56:47.437Z,99551.34
2019-05-09T04:59:17.937Z,99549.13
2019-05-09T05:01:53.832Z,99544.27
2019-05-09T05:04:24.033Z,99549.48
2019-05-09T05:06:52.436Z,99543.45
2019-05-09T05:09:21.544Z,99549.41
2019-05-09T05:11:50.171Z,99550.20
2019-05-09T05:14:21.397Z,99554.66
2019-05-09T05:16:53.280Z,99557.96
2019-05-09T05:19:21.578Z,99558.21
2019-05-09T05:21:49.989Z,99558.82
2019-05-09T05:24:20.064Z,99567.77
2019-05-09T05:26:48.589Z,99564.97
2019-05-09T05:29:17.747Z,99573.41
2019-05-09T05:31:47.769Z,99570.81
2019-05-09T05:34:27.505Z,99573.25
2019-05-09T05:36:58.103Z,99574.91
2019-05-09T05:39:28.282Z,99583.53
2019-05-09T05:41:57.654Z,99578.05
2019-05-09T05:44:28.310Z,99580.39
2019-05-09T05:47:03.598Z,99573.45
2019-05-09T05:49:32.031Z,99578.30
2019-05-09T05:52:00.436Z,99578.00
2019-05-09T05:54:28.844Z,99577.77
2019-05-09T05:56:57.977Z,99577.74
2019-05-09T05:59:28.629Z,99579.34
2019-05-09T06:01:58.442Z,99581.94
2019-05-09T06:04:27.581Z,99588.59
2019-05-09T06:06:58.677Z,99585.19
2019-05-09T06:09:28.058Z,99592.02
2019-05-09T06:11:57.799Z,99589.89
2019-05-09T06:14:28.408Z,99598.47
2019-05-09T06:16:58.770Z,99598.66
2019-05-09T06:19:28.592Z,99595.98
2019-05-09T06:21:57.433Z,99595.88
2019-05-09T06:24:28.048Z,99595.41
2019-05-09T06:26:58.400Z,99588.39
2019-05-09T06:29:28.600Z,99597.14
2019-05-09T06:31:58.447Z,99585.45
2019-05-09T06:34:27.756Z,99595.00
2019-05-09T06:36:58.497Z,99589.58
2019-05-09T06:39:28.493Z,99595.04
2019-05-09T06:41:57.482Z,99597.75
2019-05-09T06:44:28.297Z,99600.17
2019-05-09T06:47:01.599Z,99606.66
2019-05-09T06:49:32.116Z,99608.00
2019-05-09T06:52:00.560Z,99606.09
2019-05-09T06:54:29.010Z,99617.71
2019-05-09T06:56:58.442Z,99610.54
2019-05-09T06:59:28.375Z,99608.02
2019-05-09T07:01:58.491Z,99604.27
2019-05-09T07:04:43.812Z,99601.84
2019-05-09T07:07:20.116Z,99601.62
2019-05-09T07:09:53.081Z,99602.84
2019-05-09T07:12:21.508Z,99595.34
2019-05-09T07:14:49.923Z,99596.91
2019-05-09T07:17:18.771Z,99597.42
2019-05-09T07:19:48.774Z,99598.27
2019-05-09T07:22:19.236Z,99600.11
2019-05-09T07:25:06.808Z,99601.75
2019-05-09T07:27:32.889Z,99610.30
2019-05-09T07:30:02.955Z,99613.14
2019-05-09T07:32:38.199Z,99612.95
2019-05-09T07:35:08.842Z,99603.78
2019-05-09T07:37:37.944Z,99609.35
2019-05-09T07:40:08.445Z,99607.63
2019-05-09T07:42:39.030Z,99612.14
2019-05-09T07:45:08.866Z,99618.80
2019-05-09T07:47:38.759Z,99616.81
2019-05-09T07:50:08.578Z,99616.84
2019-05-09T07:52:38.821Z,99620.17
2019-05-09T07:55:08.871Z,99629.36
2019-05-09T07:57:45.687Z,99631.70
2019-05-09T08:00:08.133Z,99630.28
2019-05-09T08:02:38.715Z,99631.55
2019-05-09T08:05:08.415Z,99632.58
2019-05-09T08:07:38.125Z,99634.38
2019-05-09T08:10:10.893Z,99642.76
2019-05-09T08:12:38.960Z,99639.73
2019-05-09T08:15:16.121Z,99641.73
2019-05-09T08:17:38.099Z,99640.88
2019-05-09T08:20:07.913Z,99644.61
2019-05-09T08:22:41.181Z,99641.22
2019-05-09T08:25:08.222Z,99647.45
2019-05-09T08:27:37.825Z,99653.67
2019-05-09T08:30:08.030Z,99655.81
2019-05-09T08:32:37.758Z,99657.71
2019-05-09T08:35:08.293Z,99660.44
2019-05-09T08:37:38.820Z,99661.70
2019-05-09T08:40:08.061Z,99657.13
2019-05-09T08:42:37.892Z,99660.81
2019-05-09T08:45:17.390Z,99654.66
2019-05-09T08:47:38.064Z,99662.34
2019-05-09T08:50:10.171Z,99662.58
2019-05-09T08:52:38.582Z,99663.58
2019-05-09T08:55:08.437Z,99663.90
2019-05-09T08:57:37.625Z,99660.34
2019-05-09T09:00:08.297Z,99655.72
2019-05-09T09:02:37.698Z,99654.50
2019-05-09T09:05:08.604Z,99659.02
2019-05-09T09:07:38.011Z,99656.06
2019-05-09T09:10:08.501Z,99656.13
2019-05-09T09:12:38.402Z,99661.32
2019-05-09T09:15:08.191Z,99660.20
2019-05-09T09:17:38.525Z,99655.79
2019-05-09T09:20:07.956Z,99660.21
2019-05-09T09:22:37.539Z,99661.05
2019-05-09T09:25:07.706Z,99660.26
2019-05-09T09:27:38.064Z,99664.13
2019-05-09T09:30:19.946Z,99664.40
2019-05-09T09:32:38.708Z,99663.83
2019-05-09T09:35:08.888Z,99666.03
2019-05-09T09:37:47.596Z,99661.06
2019-05-09T09:40:08.609Z,99659.93
2019-05-09T09:42:39.705Z,99662.94
2019-05-09T09:45:08.029Z,99664.88
2019-05-09T09:47:39.622Z,99672.32
2019-05-09T09:50:08.786Z,99670.09
2019-05-09T09:52:38.483Z,99668.17
2019-05-09T09:55:09.001Z,99668.75
2019-05-09T09:57:37.852Z,99669.58
2019-05-09T10:00:24.910Z,99671.02
2019-05-09T10:02:53.493Z,99671.81
2019-05-09T10:05:21.894Z,99670.19
2019-05-09T10:07:50.322Z,99675.70
2019-05-09T10:10:35.944Z,99672.67
2019-05-09T10:13:05.102Z,99680.91
2019-05-09T10:15:35.209Z,99674.28
2019-05-09T10:18:07.380Z,99673.99
2019-05-09T10:20:38.516Z,99672.94
2019-05-09T10:23:13.041Z,99678.17
2019-05-09T10:25:38.255Z,99674.85
2019-05-09T10:28:08.710Z,99681.20
2019-05-09T10:30:38.233Z,99682.61
2019-05-09T10:33:09.127Z,99683.43
2019-05-09T10:35:39.219Z,99691.14
2019-05-09T10:38:08.681Z,99695.86
2019-05-09T10:40:39.897Z,99686.73
2019-05-09T10:43:35.891Z,99687.51
2019-05-09T10:46:15.301Z,99685.77
2019-05-09T10:48:43.015Z,99678.30
2019-05-09T10:51:11.419Z,99683.30
2019-05-09T10:53:39.848Z,99680.83
2019-05-09T10:56:08.884Z,99684.70
2019-05-09T10:58:37.541Z,99676.68
2019-05-09T11:01:09.115Z,99673.63
2019-05-09T11:03:37.698Z,99671.66
2019-05-09T11:06:08.610Z,99663.92
2019-05-09T11:08:38.080Z,99667.81
2019-05-09T11:11:09.306Z,99663.13
2019-05-09T11:13:38.943Z,99668.10
2019-05-09T11:16:07.641Z,99659.36
2019-05-09T11:18:36.414Z,99663.86
2019-05-09T11:21:04.894Z,99665.14
2019-05-09T11:23:33.316Z,99670.23
2019-05-09T11:26:01.789Z,99682.23
2019-05-09T11:28:30.191Z,99673.50
2019-05-09T11:30:58.616Z,99674.32
2019-05-09T11:33:27.839Z,99677.36
2019-05-09T11:35:58.076Z,99680.12
2019-05-09T11:38:32.680Z,99679.00
2019-05-09T11:40:57.952Z,99682.83
2019-05-09T11:43:26.582Z,99676.76
2019-05-09T11:45:55.055Z,99673.98
2019-05-09T11:48:23.454Z,99673.41
2019-05-09T11:50:51.880Z,99677.55
2019-05-09T11:53:20.286Z,99681.70
2019-05-09T11:55:48.722Z,99680.03
2019-05-09T11:58:18.109Z,99678.67
2019-05-09T12:00:48.233Z,99673.99
2019-05-09T12:03:18.771Z,99673.43
2019-05-09T12:05:47.629Z,99667.92
2019-05-09T12:08:17.748Z,99672.34
2019-05-09T12:10:46.382Z,99672.94
2019-05-09T12:13:14.782Z,99674.58
2019-05-09T12:15:43.275Z,99683.13
2019-05-09T12:18:11.884Z,99675.96
2019-05-09T12:20:40.277Z,99673.47
2019-05-09T12:23:08.676Z,99678.19
2019-05-09T12:25:38.639Z,99676.22
2019-05-09T12:28:07.801Z,99675.08
2019-05-09T12:30:37.994Z,99675.08
2019-05-09T12:33:08.568Z,99680.03
2019-05-09T12:35:38.516Z,99676.39
2019-05-09T12:38:08.386Z,99680.23
2019-05-09T12:40:38.857Z,99678.83
2019-05-09T12:43:09.138Z,99678.83
2019-05-09T12:45:38.792Z,99670.53
2019-05-09T12:48:14.643Z,99674.75
2019-05-09T12:50:38.755Z,99680.00
2019-05-09T12:53:07.325Z,99677.58
2019-05-09T12:55:38.296Z,99674.58
2019-05-09T12:58:09.743Z,99674.57
2019-05-09T13:00:38.531Z,99673.20
2019-05-09T13:03:08.479Z,99679.17
2019-05-09T13:05:38.866Z,99672.16
2019-05-09T13:08:10.470Z,99675.16
2019-05-09T13:10:37.896Z,99670.63
2019-05-09T13:13:08.606Z,99668.84
2019-05-09T13:15:40.852Z,99672.90
2019-05-09T13:18:21.336Z,99664.52
2019-05-09T13:20:39.400Z,99660.63
2019-05-09T13:23:08.893Z,99658.76
2019-05-09T13:25:38.079Z,99660.88
2019-05-09T13:28:08.309Z,99665.70
2019-05-09T13:30:37.956Z,99666.75
2019-05-09T13:33:10.465Z,99660.09
2019-05-09T13:35:39.236Z,99657.20
2019-05-09T13:38:08.680Z,99654.23
2019-05-09T13:40:36.994Z,99658.63
2019-05-09T13:43:05.489Z,99656.19
2019-05-09T13:45:33.886Z,99656.98
2019-05-09T13:48:02.405Z,99656.25
2019-05-09T13:50:30.792Z,99660.67
2019-05-09T13:52:59.234Z,99664.78
2019-05-09T13:55:27.631Z,99665.61
2019-05-09T13:57:59.259Z,99668.41
2019-05-09T14:00:28.457Z,99669.34
2019-05-09T14:02:56.328Z,99662.14
2019-05-09T14:05:24.728Z,99660.28
2019-05-09T14:07:55.254Z,99665.94
2019-05-09T14:10:23.291Z,99660.78
2019-05-09T14:13:05.689Z,99664.71
2019-05-09T14:15:21.910Z,99658.03
2019-05-09T14:17:53.727Z,99660.28
2019-05-09T14:20:20.486Z,99667.02
2019-05-09T14:22:49.227Z,99664.27
2019-05-09T14:25:19.625Z,99662.50
2019-05-09T14:27:49.750Z,99664.20
2019-05-09T14:30:19.799Z,99672.78
2019-05-09T14:32:49.746Z,99674.42
2019-05-09T14:35:18.557Z,99680.59
2019-05-09T14:37:48.758Z,99684.81
2019-05-09T14:40:17.653Z,99690.28
2019-05-09T14:42:46.243Z,99687.82
2019-05-09T14:45:14.709Z,99686.62
2019-05-09T14:47:43.201Z,99694.44
2019-05-09T14:50:12.069Z,99694.75
2019-05-09T14:52:40.768Z,99691.92
2019-05-09T14:55:09.249Z,99700.16
2019-05-09T14:57:38.363Z,99704.83
2019-05-09T15:00:08.074Z,99710.89
2019-05-09T15:02:38.790Z,99710.05
2019-05-09T15:05:09.572Z,99708.92
2019-05-09T15:07:38.936Z,99718.31
2019-05-09T15:10:08.578Z,99720.73
2019-05-09T15:12:39.127Z,99726.34
2019-05-09T15:15:08.476Z,99731.98
2019-05-09T15:17:37.434Z,99731.59
2019-05-09T15:20:08.725Z,99730.12
2019-05-09T15:22:38.617Z,99739.46
2019-05-09T15:25:08.898Z,99735.85
2019-05-09T15:27:38.547Z,99733.87
2019-05-09T15:30:07.458Z,99733.02
2019-05-09T15:32:37.765Z,99729.95
2019-05-09T15:35:08.939Z,99732.44
2019-05-09T15:37:38.575Z,99735.70
2019-05-09T15:40:08.671Z,99735.39
2019-05-09T15:42:38.885Z,99735.67
2019-05-09T15:45:08.508Z,99740.63
2019-05-09T15:47:37.855Z,99739.59
2019-05-09T15:50:18.725Z,99740.28
2019-05-09T15:52:40.039Z,99736.44
2019-05-09T15:55:09.503Z,99742.50
2019-05-09T15:57:38.200Z,99744.23
2019-05-09T16:00:10.016Z,99747.30
2019-05-09T16:02:39.242Z,99752.55
2019-05-09T16:05:10.616Z,99746.17
2019-05-09T16:07:38.188Z,99743.84
2019-05-09T16:10:08.552Z,99741.23
2019-05-09T16:12:38.400Z,99741.30
2019-05-09T16:15:07.826Z,99744.41
2019-05-09T16:17:39.232Z,99744.02
2019-05-09T16:20:08.469Z,99745.33
2019-05-09T16:22:39.211Z,99747.02
2019-05-09T16:25:08.322Z,99749.52
2019-05-09T16:27:37.931Z,99746.00
2019-05-09T16:30:08.547Z,99742.18
2019-05-09T16:32:37.774Z,99747.19
2019-05-09T16:35:08.014Z,99752.23
2019-05-09T16:37:56.783Z,99744.02
2019-05-09T16:40:08.420Z,99743.50
2019-05-09T16:42:38.179Z,99749.85
2019-05-09T16:45:08.260Z,99744.08
2019-05-09T16:47:36.725Z,99741.87
2019-05-09T16:50:09.026Z,99735.66
2019-05-09T16:52:40.311Z,99734.99
2019-05-09T16:55:09.135Z,99732.85
2019-05-09T16:57:37.814Z,99733.72
2019-05-09T17:00:09.826Z,99729.00
2019-05-09T17:02:38.323Z,99732.83
2019-05-09T17:05:08.396Z,99731.12
2019-05-09T17:07:38.374Z,99733.84
2019-05-09T17:10:08.440Z,99730.74
2019-05-09T17:12:36.942Z,99724.87
2019-05-09T17:15:08.498Z,99730.66
2019-05-09T17:17:38.576Z,99727.88
2019-05-09T17:20:08.876Z,99732.88
2019-05-09T17:23:08.404Z,99734.60
2019-05-09T17:25:28.037Z,99732.97
2019-05-09T17:27:56.927Z,99739.08
2019-05-09T17:30:28.422Z,99744.88
2019-05-09T17:32:58.323Z,99740.48
2019-05-09T17:35:27.931Z,99746.56
2019-05-09T17:37:56.538Z,99752.62
2019-05-09T17:40:24.934Z,99750.70
2019-05-09T17:42:53.360Z,99756.75
2019-05-09T17:45:21.824Z,99754.30
2019-05-09T17:47:50.226Z,99758.13
2019-05-09T17:50:18.732Z,99763.35
2019-05-09T17:52:48.124Z,99758.88
2019-05-09T17:55:18.190Z,99767.92
2019-05-09T17:57:47.933Z,99766.84
2019-05-09T18:00:21.682Z,99769.42
2019-05-09T18:02:48.584Z,99762.59
2019-05-09T18:05:17.248Z,99762.22
2019-05-09T18:07:45.646Z,99763.66
2019-05-09T18:10:14.437Z,99766.70
2019-05-09T18:12:42.915Z,99779.75
2019-05-09T18:15:12.085Z,99780.77
2019-05-09T18:17:40.480Z,99781.59
2019-05-09T18:20:08.983Z,99777.92
2019-05-09T18:22:37.377Z,99778.20
2019-05-09T18:25:08.361Z,99785.55
2019-05-09T18:27:37.869Z,99790.89
2019-05-09T18:30:07.391Z,99800.00
2019-05-09T18:32:38.314Z,99798.86
2019-05-09T18:35:27.828Z,99798.48
2019-05-09T18:37:58.726Z,99800.23
2019-05-09T18:40:28.178Z,99815.93
2019-05-09T18:42:58.383Z,99820.11
2019-05-09T18:45:28.245Z,99823.70
2019-05-09T18:47:58.069Z,99820.66
2019-05-09T18:50:26.755Z,99823.78
2019-05-09T18:52:55.169Z,99830.58
2019-05-09T18:55:24.635Z,99833.31
2019-05-09T18:57:53.275Z,99828.17
2019-05-09T19:00:22.040Z,99838.46
2019-05-09T19:02:50.911Z,99844.55
2019-05-09T19:05:20.436Z,99842.42
2019-05-09T19:07:48.848Z,99840.31
2019-05-09T19:10:17.667Z,99846.13
2019-05-09T19:12:46.109Z,99843.48
2019-05-09T19:15:16.594Z,99853.08
2019-05-09T19:17:52.745Z,99855.00
2019-05-09T19:20:37.495Z,99855.36
2019-05-09T19:23:06.037Z,99858.74
2019-05-09T19:25:35.209Z,99859.09
2019-05-09T19:28:03.985Z,99860.61
2019-05-09T19:30:32.925Z,99857.30
2019-05-09T19:33:01.357Z,99865.50
2019-05-09T19:35:29.837Z,99872.34
2019-05-09T19:37:58.265Z,99859.24
2019-05-09T19:40:26.677Z,99858.65
2019-05-09T19:42:55.106Z,99859.67
2019-05-09T19:45:23.580Z,99862.63
2019-05-09T19:47:52.075Z,99868.36
2019-05-09T19:50:20.545Z,99877.10
2019-05-09T19:52:48.977Z,99870.15
2019-05-09T19:55:17.442Z,99876.36
2019-05-09T19:57:45.878Z,99882.89
2019-05-09T20:00:15.820Z,99882.27
2019-05-09T20:02:44.319Z,99884.38
2019-05-09T20:05:12.854Z,99881.03
2019-05-09T20:07:41.285Z,99883.19
2019-05-09T20:10:11.406Z,99882.15
2019-05-09T20:12:41.544Z,99893.29
2019-05-09T20:15:11.906Z,99892.99
2019-05-09T20:17:40.341Z,99893.53
2019-05-09T20:20:09.039Z,99891.88
2019-05-09T20:22:50.983Z,99886.56
2019-05-09T20:25:07.982Z,99900.36
2019-05-09T20:27:36.433Z,99904.08
2019-05-09T20:30:06.962Z,99911.81
2019-05-09T20:32:35.422Z,99909.70
2019-05-09T20:35:04.968Z,99909.55
2019-05-09T20:37:33.555Z,99910.37
2019-05-09T20:40:02.155Z,99912.41
2019-05-09T20:42:30.809Z,99912.95
2019-05-09T20:44:59.418Z,99912.41
2019-05-09T20:47:28.008Z,99911.50
2019-05-09T20:49:56.622Z,99914.48
2019-05-09T20:52:25.213Z,99917.42
2019-05-09T20:54:53.828Z,99923.88
2019-05-09T20:57:22.418Z,99919.85
2019-05-09T20:59:51.036Z,99918.11
2019-05-09T21:02:19.621Z,99918.59
2019-05-09T21:04:48.239Z,99911.89
2019-05-09T21:07:16.828Z,99914.56
2019-05-09T21:09:45.447Z,99912.58
2019-05-09T21:12:14.033Z,99910.45
2019-05-09T21:14:42.643Z,99915.16
2019-05-09T21:17:11.230Z,99916.97
2019-05-09T21:19:39.842Z,99922.22
2019-05-09T21:22:08.438Z,99924.56
2019-05-09T21:24:37.053Z,99930.73
2019-05-09T21:27:05.636Z,99933.30
2019-05-09T21:29:34.260Z,99936.95
2019-05-09T21:32:02.945Z,99932.45
2019-05-09T21:34:31.560Z,99940.73
2019-05-09T21:36:59.962Z,99963.95
2019-05-09T21:39:28.392Z,99977.00
2019-05-09T21:41:56.797Z,99972.13
2019-05-09T21:44:25.234Z,99975.17
2019-05-09T21:46:53.637Z,99990.50
2019-05-09T21:49:22.067Z,99975.45
2019-05-09T21:51:50.465Z,99979.48
2019-05-09T21:54:18.891Z,99984.70
2019-05-09T21:56:47.296Z,99987.73
2019-05-09T21:59:15.724Z,99990.38
2019-05-09T22:01:44.569Z,100002.64
2019-05-09T22:04:13.007Z,100000.56
2019-05-09T22:06:41.487Z,100007.27
2019-05-09T22:09:10.314Z,100004.91
2019-05-09T22:11:38.763Z,100000.59
2019-05-09T22:14:07.240Z,99998.70
2019-05-09T22:16:35.742Z,100000.82
2019-05-09T22:19:04.228Z,99996.65
2019-05-09T22:21:32.656Z,99991.48
2019-05-09T22:24:01.066Z,99969.86
2019-05-09T22:26:29.560Z,99957.63
2019-05-09T22:28:57.979Z,99960.92
2019-05-09T22:31:26.473Z,99962.58
2019-05-09T22:33:54.877Z,99971.70
2019-05-09T22:36:23.310Z,99975.48
2019-05-09T22:38:51.713Z,99980.32
2019-05-09T22:41:20.141Z,99969.78
2019-05-09T22:43:48.542Z,99977.92
2019-05-09T22:46:16.972Z,99975.69
2019-05-09T22:48:45.376Z,99970.70
2019-05-09T22:51:13.804Z,99980.27
2019-05-09T22:53:42.277Z,99981.63
2019-05-09T22:56:10.814Z,99978.52
2019-05-09T22:58:39.651Z,99975.70
2019-05-09T23:01:08.084Z,99982.14
2019-05-09T23:03:36.486Z,99978.28
2019-05-09T23:06:05.016Z,99980.92
2019-05-09T23:08:33.464Z,99986.15
2019-05-09T23:11:01.912Z,99981.91
2019-05-09T23:13:31.958Z,99977.89
2019-05-09T23:16:00.365Z,99982.97
2019-05-09T23:18:28.805Z,99985.85
2019-05-09T23:20:57.553Z,99984.34
2019-05-09T23:23:30.385Z,99983.59
2019-05-09T23:25:59.065Z,99983.30
2019-05-09T23:28:28.019Z,99977.59
2019-05-09T23:31:00.741Z,99985.44
2019-05-09T23:33:30.833Z,99990.71
2019-05-09T23:35:59.259Z,99982.52
2019-05-09T23:38:27.764Z,99978.13
2019-05-09T23:40:56.215Z,99986.67
2019-05-09T23:43:24.671Z,99982.72
2019-05-09T23:45:53.165Z,99980.97
2019-05-09T23:48:21.716Z,99987.40
2019-05-09T23:50:50.101Z,99979.66
2019-05-09T23:53:23.371Z,99980.42
2019-05-09T23:56:09.501Z,99984.72
2019-05-09T23:58:55.698Z,99982.57
